메인 페이지
METAR-TAF:

METAR-TAF

공항 :

마이소르, 인도

위도: 12-13-48N, 경도: 76-39-21E, 고도: 715m

현재 날씨관측

예보는 9 시간 4분 전, 14:00시(UTC)에 발표되었습니다.
10kt
온도 29°C
습도 66%
기압 1011 hPa
시정: 8000m
고도 1500ft 상공 구름 보통
고도 2500ft 상공 구름 조금, 적란운.

METAR: VOMY 281400Z 27010KT 8000 SCT015 FEW025CB 29/22 Q1011

시각: 04:34 (23:04 UTC)

예보

예보는 15 시간 4분 전, 08:00시(UTC)에 발표되었습니다.
예보 대상 시간: 28일 09시부터 28일 18시까지 (UTC)
10kt
시정: 8000m
고도 1500ft 상공 구름 보통
일시적
28일 09시부터 28일 15시까지 (UTC)
시정: 4000m
뇌우, 비, 비

TAF: VOMY 280800Z 2809/2818 27010KT 8000 SCT015 TEMPO 2809/2815 4000 TSRA RA SCT0

4,000개 이상의 공항 관측 자료 및 예보 (METAR 및 TAF 보고).

지도상에서 검색 가능한 기상관측소가 노란 점과 빨간 점으로 표시되어 있습니다.

기상관측소 명을 보려면 표시 위로 마우스를 이동하세요.

날씨 관측과 예보를 보려면 클릭하세요.

지도 변경 : 확대하려면 엑스 표시가 있는 녹색 버튼, 축소하려면 빼기 표시가 있는 녹색 버튼, 다음 페이지의 지도를 보려면 녹색 화살표를 클릭하세요.


METAR-TAF: